Terminal Aerodrome Forecast
Issued by NWS Louisville, KY

Home | Current Version | Previous Version | Text Only | Print | Product List | Glossary On
Versions: 1 2 3 4 5 6 7 8 9 10 11 12 13 14 15 16 17 18
000
FTUS43 KLMK 221720
TAFBWG
TAF
KBWG 221720Z 2218/2318 11012KT 6SM -RA BKN045
     FM230400 10012KT 5SM -RA BR OVC035 WS019/11048KT
     FM230800 10012KT 5SM -RA BR OVC017 WS020/11042KT
     FM231300 10012KT P6SM VCSH BKN013=

USA.gov is the U.S. government's official web portal to all federal, state and local government web resources and services.